Active alerts


No alerts


weather webcam more information weather webcam


Thunder radar more information blitzortung!


Rain radar more information rain snow radar


Visit our other weather sites:

Template documentation
and downloads

And another site


Nearby METAR Reports

   
EBBR - Brussels International Airport, Belgium
Distance from station: W 9 mi
Updated: Jun 17 2019 9:20 am
Clear  
Clear  
   Wind: SSE 4.6 mph
Wind: SSE 4.6 mph
Temperature: 73.4°F
Dew Point: 55.4°F
Humidity: 53%
Barometer: 30.06 inHg
Visibility: More than 6 mi
Cloud details: Clear
EBBR 171420Z 15004KT 100V200 CAVOK 23/13 Q1018 NOSIG
EBBE - Beauvechain (Bevekom), Belgium
Distance from station: SSE 10 mi
Updated: Jun 17 2019 9:25 am
Few Clouds  
Few Clouds  
   Wind: South 4.6 mph
Wind: South 4.6 mph
Temperature: 77°F
Dew Point: 55.4°F
Humidity: 47%
Barometer: 30.06 inHg
Clouds: Few Clouds
Visibility: More than 6 mi
Cloud details: Few Clouds 4800 ft
EBBE 171425Z 19004KT 9999 FEW048 25/13 Q1018 BLU BLU
EBDT - Schaffen, Belgium
Distance from station: ENE 18 mi
Updated: Jun 17 2019 9:25 am
Partly Cloudy  
Partly Cloudy  
   Wind: SW 5.8 mph
Wind: SW 5.8 mph
Temperature: 77°F
Dew Point: 53.6°F
Humidity: 44%
Barometer: 30.06 inHg
Clouds: Partly Cloudy
Visibility: More than 6 mi
Cloud details: Partly Cloudy 5000 ft
EBDT 171425Z 23005KT 9999 SCT050 25/12 Q1018 BLU BLU
EBAW - Antwerp/Deurne, Belgium
Distance from station: NNW 23 mi
Updated: Jun 17 2019 9:20 am
Few Clouds  
Few Clouds  
   Wind: varies 5.8 mph
Wind: varies 5.8 mph
Temperature: 78.8°F
Dew Point: 51.8°F
Humidity: 39%
Barometer: 30.06 inHg
Clouds: Few Clouds
Visibility: More than 6 mi
Cloud details: Few Clouds 4900 ft
EBAW 171420Z VRB05KT 9999 FEW049 26/11 Q1018 NOSIG
EBCI - Charleroi/Gosselies, Belgium
Distance from station: SSW 32 mi
Updated: Jun 17 2019 9:20 am
Clear  
Clear  
   Wind: North 4.6 mph
Wind: North 4.6 mph
Temperature: 73.4°F
Dew Point: 53.6°F
Humidity: 50%
Barometer: 30.09 inHg
Visibility: More than 6 mi
Cloud details: Clear
EBCI 171420Z 36004KT 300V040 CAVOK 23/12 Q1019 NOSIG
EBLG - Bierset/Liege, Belgium
Distance from station: ESE 38 mi
Updated: Jun 17 2019 9:20 am
Clear  
Clear  
   Wind: North 4.6 mph
Wind: North 4.6 mph
Temperature: 75.2°F
Dew Point: 55.4°F
Humidity: 50%
Barometer: 30.06 inHg
Visibility: More than 6 mi
Cloud details: Clear
EBLG 171420Z 36004KT 320V060 CAVOK 24/13 Q1018 NOSIG

Script developed by  Saratoga-weather.org Adapted for the template by  Weerstation Leuven

You find our weather info also at:

Weather Underground

Midwestern Weather Network

Citizen Weather Observer Program (CWOP)

HAMweather, WeatherForYou, PWS Weather

Equipment we use:

Weather-station
Davis VP2

Weather-program
Cumulus

Davis VP2

Cumulus